Terminal Aerodrome Forecast
Issued by NWS Sterling, VA

Home | Current Version | Previous Version | Text Only | Print | Product List | Glossary On
Versions: 1 2 3 4 5 6 7 8 9 10 11 12 13 14 15 16 17 18 19 20 21 22
815
FTUS41 KLWX 080520
TAFIAD
TAF
KIAD 080520Z 0806/0912 35007KT P6SM OVC150
     FM081700 12005KT P6SM BKN035
     FM082200 11006KT P6SM -RA OVC020
     FM090000 10006KT 3SM -RASN OVC012
     FM090400 08005KT 1SM -SN OVC007=

USA.gov is the U.S. government's official web portal to all federal, state and local government web resources and services.